Time;durP1;ratioP1;P1;durP2;ratioP2;P2;SDS_P1;SDS_P2;PMS_P1;PMS_P2;Temp;Humidity;BMP_temperature;BMP_pressure;BME280_temperature;BME280_humidity;BME280_pressure;Samples;Min_cycle;Max_cycle;Signal;HPM_P1;HPM_P2
2024/04/13 00:04:10;;;;;;;16.30;9.67;;;;;;;14.76;86.54;101500.13;11261720;26;20454;-77
2024/04/13 00:09:12;;;;;;;15.80;9.75;;;;;;;14.70;87.18;101494.34;11230878;26;21056;-77
2024/04/13 00:14:14;;;;;;;15.07;10.05;;;;;;;14.76;86.91;101494.72;11230013;26;20013;-77
2024/04/13 00:19:15;;;;;;;15.77;10.67;;;;;;;14.74;86.91;101493.13;11235426;26;20072;-77
2024/04/13 00:24:17;;;;;;;15.23;10.00;;;;;;;14.74;86.69;101487.72;11206741;26;20249;-77
2024/04/13 00:29:19;;;;;;;17.60;11.35;;;;;;;14.69;87.46;101484.50;11227228;26;19999;-77
2024/04/13 00:34:21;;;;;;;19.03;11.53;;;;;;;14.64;87.38;101479.47;11258047;26;20003;-77
2024/04/13 00:39:23;;;;;;;18.42;11.18;;;;;;;14.65;87.38;101469.53;11247660;26;20007;-77
2024/04/13 00:44:25;;;;;;;16.00;11.80;;;;;;;14.64;87.09;101479.47;11235233;26;20018;-77
2024/04/13 00:49:26;;;;;;;15.50;11.18;;;;;;;14.59;87.45;101473.59;11221920;26;20007;-77
2024/04/13 00:54:31;;;;;;;17.23;11.15;;;;;;;14.60;87.56;101464.50;11209053;26;20018;-77
2024/04/13 00:59:34;;;;;;;19.55;12.25;;;;;;;14.56;87.86;101473.81;11197620;26;20006;-77
2024/04/13 01:04:39;;;;;;;21.15;12.77;;;;;;;14.46;88.70;101457.50;11195297;26;20086;-77
2024/04/13 01:09:42;;;;;;;19.88;12.65;;;;;;;14.46;89.03;101454.78;11235404;26;20009;-77
2024/04/13 01:14:44;;;;;;;18.75;11.68;;;;;;;14.56;88.00;101455.78;11239598;26;20010;-77
2024/04/13 01:19:46;;;;;;;17.05;12.27;;;;;;;14.57;87.79;101454.78;11255006;26;19999;-77
2024/04/13 01:24:49;;;;;;;17.75;11.73;;;;;;;14.40;89.56;101459.81;11210310;26;20092;-77
2024/04/13 01:29:51;;;;;;;17.95;11.45;;;;;;;14.46;88.97;101445.84;11260105;26;20075;-77
2024/04/13 01:34:53;;;;;;;25.42;12.43;;;;;;;14.48;88.87;101449.25;11267235;26;20010;-77
2024/04/13 01:39:55;;;;;;;23.55;12.43;;;;;;;14.41;89.47;101450.75;11249769;26;19999;-77
2024/04/13 01:44:58;;;;;;;21.33;11.90;;;;;;;14.49;88.64;101445.56;11238447;26;20002;-77
2024/04/13 01:50:00;;;;;;;22.50;12.40;;;;;;;14.43;88.39;101446.94;11269539;26;20225;-77
2024/04/13 01:55:03;;;;;;;24.60;12.63;;;;;;;14.45;88.29;101441.38;11217847;26;20011;-77
2024/04/13 02:00:06;;;;;;;19.75;12.27;;;;;;;14.43;88.54;101443.38;11265591;26;20247;-77
2024/04/13 02:05:08;;;;;;;16.48;12.70;;;;;;;14.29;89.80;101444.44;11219272;26;20086;-77
2024/04/13 02:10:10;;;;;;;17.38;12.57;;;;;;;14.34;89.29;101450.31;11216116;26;20442;-77
2024/04/13 02:15:12;;;;;;;23.73;12.55;;;;;;;14.28;89.92;101440.88;11226542;26;20694;-76
2024/04/13 02:20:16;;;;;;;16.40;11.60;;;;;;;14.35;88.43;101446.66;11232347;26;20000;-77
2024/04/13 02:25:18;;;;;;;21.33;11.77;;;;;;;13.92;91.34;101433.84;11218744;26;20318;-77
2024/04/13 02:30:20;;;;;;;19.95;12.30;;;;;;;14.05;90.47;101436.47;11212761;26;19999;-77
2024/04/13 02:35:21;;;;;;;19.90;12.43;;;;;;;14.13;90.37;101420.50;11202064;26;20014;-77
2024/04/13 02:40:23;;;;;;;23.30;12.97;;;;;;;14.19;89.81;101408.34;11213311;26;20233;-77
2024/04/13 02:45:25;;;;;;;22.00;12.40;;;;;;;14.11;89.75;101403.53;11240624;26;20017;-77
2024/04/13 02:50:27;;;;;;;19.85;12.85;;;;;;;14.08;89.87;101396.53;11231956;26;20015;-77
2024/04/13 02:55:29;;;;;;;22.17;12.33;;;;;;;14.08;90.18;101398.38;11214946;26;20003;-77
2024/04/13 03:00:30;;;;;;;24.73;12.23;;;;;;;14.00;90.51;101382.78;11238192;26;20236;-77
2024/04/13 03:05:32;;;;;;;17.57;12.13;;;;;;;14.00;90.61;101392.72;11236045;26;20303;-77
2024/04/13 03:10:34;;;;;;;18.83;12.70;;;;;;;13.93;91.13;101387.81;11211854;26;20276;-77
2024/04/13 03:15:36;;;;;;;18.33;12.67;;;;;;;13.97;90.58;101385.72;11222801;26;20225;-77
2024/04/13 03:20:38;;;;;;;19.77;12.70;;;;;;;13.83;92.03;101380.56;11236932;26;20375;-77
2024/04/13 03:25:39;;;;;;;20.15;12.73;;;;;;;13.86;91.48;101391.97;11226906;26;20003;-77
2024/04/13 03:30:41;;;;;;;18.70;10.80;;;;;;;13.76;92.42;101392.81;11233282;26;20624;-77
2024/04/13 03:35:44;;;;;;;18.00;11.50;;;;;;;13.74;92.86;101390.25;11226621;26;20808;-77
2024/04/13 03:40:46;;;;;;;23.52;13.70;;;;;;;13.58;94.83;101385.19;11209519;26;20000;-77
2024/04/13 03:45:54;;;;;;;19.33;11.18;;;;;;;13.81;91.79;101375.28;11244440;26;20028;-77
2024/04/13 03:50:56;;;;;;;19.40;11.20;;;;;;;13.42;95.48;101384.66;11231039;26;20014;-77
2024/04/13 03:55:58;;;;;;;18.00;11.80;;;;;;;13.68;93.31;101383.47;11218640;26;20003;-77
2024/04/13 04:01:01;;;;;;;17.95;11.85;;;;;;;13.80;92.36;101387.06;11251767;26;19995;-77
2024/04/13 04:06:04;;;;;;;17.40;11.73;;;;;;;13.63;92.91;101390.22;11294966;26;20003;-77
2024/04/13 04:11:06;;;;;;;22.98;11.32;;;;;;;13.37;95.97;101405.75;11254938;26;20031;-77
2024/04/13 04:16:08;;;;;;;17.35;11.75;;;;;;;13.65;93.34;101399.06;11245696;26;20003;-77
2024/04/13 04:21:10;;;;;;;18.43;12.87;;;;;;;13.64;93.72;101398.22;11230490;26;20003;-77
2024/04/13 04:26:12;;;;;;;29.10;11.30;;;;;;;13.65;93.99;101399.91;11218049;26;20003;-77
2024/04/13 04:31:13;;;;;;;19.43;10.57;;;;;;;13.54;94.38;101397.19;11205919;26;19995;-77
2024/04/13 04:36:15;;;;;;;18.85;11.40;;;;;;;13.53;94.12;101400.88;11263072;26;20076;-77
2024/04/13 04:41:17;;;;;;;14.00;11.27;;;;;;;13.51;95.01;101404.69;11255541;26;20007;-77
2024/04/13 04:46:20;;;;;;;17.67;12.30;;;;;;;13.48;94.65;101413.88;11244394;26;20004;-77
2024/04/13 04:51:21;;;;;;;20.52;12.20;;;;;;;13.42;95.04;101411.66;11229683;26;20003;-77
2024/04/13 04:56:25;;;;;;;20.87;12.30;;;;;;;13.65;93.19;101426.91;11218691;26;19999;-77
2024/04/13 05:01:27;;;;;;;16.85;11.68;;;;;;;13.54;94.41;101417.94;11205197;26;20281;-77
2024/04/13 05:06:29;;;;;;;21.42;12.30;;;;;;;13.54;94.16;101412.53;11230994;26;20058;-77
2024/04/13 05:11:33;;;;;;;17.83;12.63;;;;;;;13.67;92.70;101418.72;11260896;26;20182;-77
2024/04/13 05:16:35;;;;;;;22.13;11.07;;;;;;;13.70;92.35;101429.28;11251992;26;20014;-77
2024/04/13 05:21:37;;;;;;;18.93;12.27;;;;;;;13.54;94.00;101429.59;11229898;26;20121;-77
2024/04/13 05:26:40;;;;;;;20.60;11.65;;;;;;;13.69;93.23;101419.47;11225892;26;20280;-77
2024/04/13 05:31:41;;;;;;;;;;;;;;;13.81;92.91;101415.78;11214405;26;19999;-77
2024/04/13 05:36:45;;;;;;;16.27;10.20;;;;;;;13.83;92.62;101416.53;11207171;26;19936;-77
2024/04/13 05:41:47;;;;;;;16.42;10.98;;;;;;;14.11;90.05;101419.75;11240647;26;20004;-77
2024/04/13 05:46:50;;;;;;;14.97;10.70;;;;;;;14.19;90.76;101432.66;11224824;26;20579;-77
2024/04/13 05:51:52;;;;;;;19.65;10.43;;;;;;;14.05;91.30;101428.34;11239784;26;20240;-77
2024/04/13 05:56:54;;;;;;;12.93;7.40;;;;;;;14.03;91.48;101439.25;11252270;26;20003;-77
2024/04/13 06:01:57;;;;;;;16.80;9.90;;;;;;;14.41;89.47;101438.09;11261715;26;20236;-77
2024/04/13 06:06:59;;;;;;;15.85;9.52;;;;;;;14.28;90.34;101450.81;11273245;26;20271;-77
2024/04/13 06:12:01;;;;;;;19.00;8.18;;;;;;;14.18;90.54;101437.19;11266437;26;20353;-75
2024/04/13 06:17:02;;;;;;;15.03;9.77;;;;;;;14.20;90.20;101437.91;11253508;26;20014;-75
2024/04/13 06:22:04;;;;;;;16.83;10.00;;;;;;;14.54;87.86;101436.09;11241852;26;20748;-76
2024/04/13 06:27:09;;;;;;;14.10;9.30;;;;;;;14.49;88.39;101432.91;11245675;26;20004;-75
2024/04/13 06:32:11;;;;;;;18.38;9.48;;;;;;;14.97;85.53;101426.28;11266213;26;20026;-76
2024/04/13 06:37:14;;;;;;;14.80;8.88;;;;;;;14.74;85.90;101429.06;11247921;26;20338;-75
2024/04/13 06:42:16;;;;;;;17.63;9.73;;;;;;;15.17;84.34;101425.50;11221724;26;20076;-76
2024/04/13 07:10:17;;;;;;;12.83;8.17;;;;;;;16.07;79.25;101408.75;10253068;28;20013;-74
2024/04/13 07:15:19;;;;;;;14.52;8.20;;;;;;;16.34;77.03;101400.00;10258512;28;20459;-75
2024/04/13 07:20:21;;;;;;;14.65;7.47;;;;;;;15.87;79.32;101399.63;10250135;28;20035;-74
2024/04/13 07:25:22;;;;;;;14.35;6.95;;;;;;;16.08;78.36;101401.47;10249707;28;20469;-76
2024/04/13 07:30:24;;;;;;;11.83;7.60;;;;;;;16.37;76.27;101407.03;10255745;28;20045;-76
2024/04/13 07:35:26;;;;;;;8.85;6.72;;;;;;;16.58;75.41;101394.25;10251274;28;20247;-76
2024/04/13 07:40:28;;;;;;;8.82;5.10;;;;;;;15.93;75.04;101387.41;10248578;28;20409;-74
2024/04/13 07:45:29;;;;;;;8.27;5.13;;;;;;;16.59;72.13;101377.00;10244393;28;20150;-76
2024/04/13 07:50:31;;;;;;;6.75;4.03;;;;;;;16.49;73.25;101388.81;10265204;28;20016;-73
2024/04/13 07:55:33;;;;;;;8.53;5.57;;;;;;;16.72;73.84;101382.13;10264364;28;20751;-75
2024/04/13 08:00:35;;;;;;;5.60;4.40;;;;;;;17.06;70.07;101383.56;10230154;28;20304;-75
2024/04/13 08:05:37;;;;;;;9.38;4.30;;;;;;;16.91;70.25;101385.88;10259919;28;20028;-75
2024/04/13 08:10:39;;;;;;;6.28;4.32;;;;;;;17.46;68.02;101381.59;10268117;28;20119;-76
2024/04/13 08:15:41;;;;;;;4.35;3.83;;;;;;;17.12;68.88;101393.91;10254544;28;20103;-76
2024/04/13 08:20:45;;;;;;;7.95;4.82;;;;;;;17.37;68.19;101385.19;10257230;28;20836;-77
2024/04/13 08:25:47;;;;;;;6.40;5.10;;;;;;;17.74;66.65;101391.69;10244943;28;20013;-76
2024/04/13 08:30:49;;;;;;;9.95;5.10;;;;;;;17.78;67.67;101393.13;10260635;28;20020;-73
2024/04/13 08:36:01;;;;;;;;;;;;;;;17.63;67.07;101388.13;10223495;28;20034;-75
2024/04/13 08:41:07;;;;;;;6.53;3.58;;;;;;;18.17;66.78;101393.88;10290848;28;19932;-75
2024/04/13 08:46:09;;;;;;;7.80;4.75;;;;;;;17.80;69.13;101389.25;10251365;28;20070;-77
2024/04/13 08:51:12;;;;;;;5.55;3.35;;;;;;;17.53;67.09;101395.47;10247707;28;20013;-76
2024/04/13 08:56:15;;;;;;;7.05;3.92;;;;;;;17.37;68.77;101371.59;10256376;28;20071;-77
2024/04/13 09:01:22;;;;;;;5.78;3.58;;;;;;;17.31;69.18;101376.78;10250833;28;20335;-73
2024/04/13 09:06:24;;;;;;;9.00;4.43;;;;;;;17.62;69.82;101363.84;10250408;28;20017;-77
2024/04/13 09:11:27;;;;;;;6.53;4.20;;;;;;;17.89;66.97;101377.50;10253714;28;20024;-77
2024/04/13 09:16:30;;;;;;;8.18;5.00;;;;;;;17.82;68.39;101368.19;10246099;28;20017;-76
2024/04/13 09:21:34;;;;;;;7.47;4.55;;;;;;;17.96;66.91;101371.44;10233552;28;20111;-77
2024/04/13 09:26:44;;;;;;;8.85;4.82;;;;;;;18.88;64.66;101379.59;10237871;28;20093;-77
2024/04/13 09:31:46;;;;;;;7.00;4.68;;;;;;;18.69;63.74;101374.25;10242158;28;20378;-76
2024/04/13 09:36:48;;;;;;;8.88;4.90;;;;;;;19.15;62.58;101358.75;10221925;28;20025;-76
2024/04/13 09:41:50;;;;;;;10.77;5.53;;;;;;;19.34;61.63;101364.00;10220870;28;20033;-77
2024/04/13 09:46:52;;;;;;;11.13;5.60;;;;;;;19.23;61.46;101350.66;10257871;28;20084;-76
2024/04/13 09:51:55;;;;;;;6.18;4.25;;;;;;;19.48;60.80;101354.41;10260317;28;20072;-76
2024/04/13 09:56:58;;;;;;;8.80;5.55;;;;;;;19.35;60.51;101337.63;10262986;28;20025;-73
2024/04/13 10:02:00;;;;;;;11.13;5.20;;;;;;;19.05;61.41;101328.00;10274227;28;20024;-76
2024/04/13 10:07:05;;;;;;;5.63;4.05;;;;;;;18.87;61.29;101334.34;10258805;28;20065;-77
2024/04/13 10:12:12;;;;;;;8.27;4.65;;;;;;;19.32;60.55;101324.31;10258824;28;20020;-79
2024/04/13 10:17:14;;;;;;;9.00;5.05;;;;;;;19.05;61.98;101311.69;10262984;28;20116;-76
2024/04/13 10:22:18;;;;;;;9.55;6.50;;;;;;;19.38;60.64;101310.91;10258028;28;20020;-78
2024/04/13 10:27:38;;;;;;;8.60;5.60;;;;;;;19.67;61.39;101302.44;10265808;28;20016;-76
2024/04/13 10:32:42;;;;;;;8.02;4.93;;;;;;;19.49;60.69;101293.44;10279107;28;20025;-77
2024/04/13 10:37:44;;;;;;;10.35;5.35;;;;;;;19.47;60.47;101290.00;10257215;28;20409;-76
2024/04/13 10:42:46;;;;;;;10.40;6.85;;;;;;;19.36;60.59;101276.66;10253863;28;20123;-78
2024/04/13 10:47:52;;;;;;;8.52;6.10;;;;;;;20.07;59.02;101262.72;10258167;28;20028;-78
2024/04/13 10:52:54;;;;;;;9.52;5.38;;;;;;;20.33;58.48;101259.09;10256886;28;20019;-76
2024/04/13 10:57:56;;;;;;;8.77;5.97;;;;;;;20.10;59.01;101251.50;10258763;28;20013;-78
2024/04/13 11:02:58;;;;;;;9.02;6.57;;;;;;;21.07;57.29;101240.88;10261308;28;20009;-78
2024/04/13 11:08:00;;;;;;;9.43;5.78;;;;;;;22.54;53.34;101248.53;10291365;28;20086;-75
2024/04/13 11:13:04;;;;;;;10.10;5.95;;;;;;;21.18;55.83;101247.88;10258172;28;20053;-79
2024/04/13 11:18:08;;;;;;;9.38;5.35;;;;;;;21.69;53.98;101226.53;10250241;28;20009;-77
2024/04/13 11:23:10;;;;;;;6.88;4.30;;;;;;;20.99;53.15;101214.41;10226681;28;20021;-77
2024/04/13 11:28:12;;;;;;;10.52;5.65;;;;;;;20.89;54.06;101213.72;10258955;28;20470;-78
2024/04/13 11:33:15;;;;;;;8.27;5.18;;;;;;;20.57;55.97;101192.78;10259426;28;20009;-77
2024/04/13 11:38:17;;;;;;;6.97;4.50;;;;;;;21.70;52.73;101197.31;10260266;28;20024;-78
2024/04/13 11:43:20;;;;;;;8.73;4.57;;;;;;;21.15;54.30;101183.50;10253663;28;20018;-76
2024/04/13 11:48:22;;;;;;;5.80;3.85;;;;;;;21.50;52.57;101166.81;10245369;28;20048;-77
2024/04/13 11:53:25;;;;;;;;;;;;;;;21.99;51.46;101174.78;10262107;28;20009;-77
2024/04/13 11:58:27;;;;;;;8.25;4.55;;;;;;;21.77;52.72;101147.22;10259015;28;19932;-78
2024/04/13 12:03:29;;;;;;;;;;;;;;;21.50;52.02;101164.94;10260029;28;20020;-77
2024/04/13 12:08:31;;;;;;;4.90;3.63;;;;;;;21.17;53.40;101150.53;10263405;28;19932;-74
2024/04/13 12:13:32;;;;;;;4.95;2.97;;;;;;;21.08;53.19;101136.06;10260859;28;20006;-77
2024/04/13 12:18:34;;;;;;;5.05;4.05;;;;;;;20.70;55.30;101116.66;10247126;28;20025;-78
2024/04/13 12:23:37;;;;;;;7.72;3.53;;;;;;;21.23;53.00;101104.25;10254820;28;20018;-77
2024/04/13 12:28:39;;;;;;;8.05;3.85;;;;;;;21.49;53.05;101105.00;10258538;28;20037;-78
2024/04/13 12:33:44;;;;;;;;;;;;;;;21.65;52.74;101093.97;10234959;28;20441;-77
2024/04/13 12:38:46;;;;;;;7.25;3.17;;;;;;;22.71;50.59;101082.19;10257602;28;19932;-77
2024/04/13 12:43:48;;;;;;;4.60;3.00;;;;;;;22.88;49.58;101066.44;10250972;28;20009;-77
2024/04/13 12:48:50;;;;;;;7.40;3.42;;;;;;;23.60;47.68;101062.94;10243576;28;20009;-78
2024/04/13 12:53:52;;;;;;;6.78;3.38;;;;;;;23.56;47.30;101058.00;10253438;28;20032;-78
2024/04/13 12:58:53;;;;;;;7.55;3.20;;;;;;;25.38;44.88;101042.53;10258388;28;20010;-78
2024/04/13 13:03:55;;;;;;;4.82;2.35;;;;;;;24.37;44.95;101035.81;10257803;28;20024;-79
2024/04/13 13:08:58;;;;;;;6.78;3.65;;;;;;;23.34;46.44;101029.72;10231265;28;20101;-77
2024/04/13 13:14:01;;;;;;;3.72;1.88;;;;;;;22.10;48.82;101018.44;10258604;28;20498;-78
2024/04/13 13:19:03;;;;;;;8.38;2.55;;;;;;;23.46;47.28;100998.03;10253393;28;20024;-76
2024/04/13 13:24:05;;;;;;;4.70;2.70;;;;;;;24.10;45.68;100992.53;10254281;28;20014;-77
2024/04/13 13:29:07;;;;;;;4.13;2.20;;;;;;;23.78;45.23;100985.72;10235505;28;20013;-78
2024/04/13 13:34:09;;;;;;;5.78;2.28;;;;;;;23.18;46.22;100974.13;10262968;28;20021;-77
2024/04/13 13:39:11;;;;;;;2.50;1.88;;;;;;;23.71;46.18;100971.06;10263384;28;20525;-78
2024/04/13 13:44:13;;;;;;;5.13;2.42;;;;;;;23.62;45.47;100958.53;10264106;28;20025;-75
2024/04/13 13:49:15;;;;;;;3.83;2.13;;;;;;;22.73;48.42;100948.66;10256236;28;20113;-77
2024/04/13 13:54:17;;;;;;;3.70;2.30;;;;;;;23.23;47.92;100939.78;10263895;28;20065;-77
2024/04/13 13:59:19;;;;;;;6.35;2.08;;;;;;;23.83;45.72;100938.50;10266484;28;20013;-77
2024/04/13 14:04:21;;;;;;;4.03;1.92;;;;;;;22.81;46.77;100927.69;10263288;28;20014;-78
2024/04/13 14:09:23;;;;;;;3.42;2.50;;;;;;;22.75;46.70;100904.66;10267541;28;20813;-77
2024/04/13 14:14:25;;;;;;;6.00;2.28;;;;;;;23.00;46.69;100895.03;10258336;28;20024;-76
2024/04/13 14:19:28;;;;;;;5.40;2.75;;;;;;;22.71;47.06;100871.34;10272479;28;20023;-74
2024/04/13 14:24:30;;;;;;;6.10;3.25;;;;;;;23.57;45.83;100867.81;10261363;28;20889;-78
2024/04/13 14:29:32;;;;;;;5.85;2.92;;;;;;;23.07;46.67;100875.13;10263717;28;20025;-78
2024/04/13 14:34:33;;;;;;;;;;;;;;;23.16;46.23;100871.22;10262129;28;20389;-77
2024/04/13 14:39:35;;;;;;;3.13;2.57;;;;;;;23.62;46.03;100859.84;10258571;28;19948;-78
2024/04/13 14:44:37;;;;;;;3.97;2.72;;;;;;;23.73;45.44;100836.50;10260440;28;20021;-78
2024/04/13 14:49:39;;;;;;;2.75;2.35;;;;;;;22.99;46.51;100844.06;10251842;28;20020;-76
2024/04/13 14:54:41;;;;;;;5.63;2.67;;;;;;;23.51;45.83;100820.09;10260541;28;20021;-78
2024/04/13 14:59:43;;;;;;;;;;;;;;;22.58;47.23;100804.63;10234494;28;20017;-77
2024/04/13 15:04:44;;;;;;;4.05;2.70;;;;;;;22.86;46.64;100810.19;10259365;28;20613;-79
2024/04/13 15:09:46;;;;;;;6.30;2.42;;;;;;;23.09;46.05;100790.81;10234797;28;20024;-79
2024/04/13 15:14:51;;;;;;;4.78;2.50;;;;;;;23.25;46.74;100782.34;10259096;28;20010;-79
2024/04/13 15:19:53;;;;;;;4.82;2.70;;;;;;;23.91;44.48;100773.75;10261662;28;20010;-77
2024/04/13 15:24:55;;;;;;;8.02;2.92;;;;;;;23.86;45.52;100773.50;10233536;28;20017;-79
2024/04/13 15:29:57;;;;;;;;;;;;;;;23.19;46.90;100769.44;10262721;28;20057;-78
2024/04/13 15:34:59;;;;;;;3.28;2.58;;;;;;;23.06;46.52;100759.19;10262413;28;20007;-78
2024/04/13 15:40:05;;;;;;;3.47;2.70;;;;;;;23.57;45.51;100760.88;10258590;28;20024;-79
2024/04/13 15:45:08;;;;;;;5.10;2.53;;;;;;;23.69;45.50;100767.47;10259338;28;20402;-79
2024/04/13 15:50:10;;;;;;;6.28;2.90;;;;;;;23.49;46.77;100739.09;10261101;28;20021;-78
2024/04/13 15:55:12;;;;;;;5.25;2.53;;;;;;;23.03;46.05;100756.00;10258782;28;20029;-78
2024/04/13 16:00:19;;;;;;;4.43;2.40;;;;;;;23.96;44.98;100724.59;10257572;28;20010;-77
2024/04/13 16:05:21;;;;;;;3.10;2.20;;;;;;;23.61;45.07;100727.38;10258652;28;20051;-78
2024/04/13 16:10:23;;;;;;;4.25;2.65;;;;;;;23.23;47.18;100734.25;10258648;28;20028;-79
2024/04/13 16:15:24;;;;;;;3.75;1.90;;;;;;;22.97;46.80;100742.03;10259174;28;20018;-77
2024/04/13 16:20:27;;;;;;;4.75;2.63;;;;;;;22.99;46.76;100708.97;10259719;28;20009;-78
2024/04/13 16:25:30;;;;;;;5.05;3.53;;;;;;;23.00;46.31;100691.50;10267066;28;20009;-72
2024/04/13 16:30:32;;;;;;;3.45;2.55;;;;;;;22.57;46.82;100702.47;10274479;28;20009;-77
2024/04/13 16:35:42;;;;;;;2.85;2.28;;;;;;;22.94;46.83;100701.34;10257743;28;20028;-79
2024/04/13 16:40:44;;;;;;;6.88;2.67;;;;;;;23.14;45.59;100685.09;10251115;28;20013;-77
2024/04/13 16:45:47;;;;;;;3.40;2.85;;;;;;;22.53;47.70;100690.25;10256906;28;20489;-78
2024/04/13 16:51:00;;;;;;;2.90;2.60;;;;;;;22.86;47.41;100673.25;10251428;28;20055;-79
2024/04/13 16:56:02;;;;;;;7.05;2.78;;;;;;;22.64;47.99;100667.81;10258203;28;20024;-79
2024/04/13 17:01:04;;;;;;;3.90;2.35;;;;;;;22.37;48.95;100668.56;10255724;28;20009;-77
2024/04/13 17:06:06;;;;;;;;;;;;;;;22.05;50.18;100663.41;10254014;28;20023;-77
2024/04/13 17:11:07;;;;;;;6.73;2.70;;;;;;;21.54;50.90;100651.59;10251946;28;19933;-77
2024/04/13 17:16:09;;;;;;;2.70;2.42;;;;;;;21.67;50.83;100640.84;10252904;28;20419;-77
2024/04/13 17:21:12;;;;;;;2.58;2.00;;;;;;;21.80;50.15;100640.16;10253435;28;20036;-76
2024/04/13 17:26:14;;;;;;;3.63;2.60;;;;;;;21.68;49.42;100626.13;10252104;28;20016;-77
2024/04/13 17:31:16;;;;;;;3.90;2.20;;;;;;;21.56;49.55;100631.25;10250981;28;20032;-77
2024/04/13 17:36:18;;;;;;;4.60;2.88;;;;;;;21.46;49.05;100630.69;10250682;28;20435;-77
2024/04/13 17:41:22;;;;;;;3.03;2.55;;;;;;;21.51;48.92;100617.28;10246900;28;20042;-77
2024/04/13 17:46:24;;;;;;;5.38;2.45;;;;;;;21.53;48.88;100608.88;10215943;28;20025;-75
2024/04/13 17:51:25;;;;;;;3.80;3.05;;;;;;;21.39;49.44;100606.00;10249388;28;20095;-75
2024/04/13 17:56:27;;;;;;;3.35;2.92;;;;;;;21.18;49.72;100603.19;10244224;28;20121;-77
2024/04/13 18:01:31;;;;;;;4.07;3.22;;;;;;;21.23;50.10;100598.84;10249372;28;20033;-76
2024/04/13 18:06:33;;;;;;;5.55;3.05;;;;;;;21.13;49.46;100592.00;10249146;28;20036;-76
2024/04/13 18:11:35;;;;;;;5.10;3.03;;;;;;;21.15;49.63;100592.66;10254669;28;20020;-75
2024/04/13 18:16:38;;;;;;;5.68;3.15;;;;;;;21.17;49.88;100585.97;10254393;28;20086;-75
2024/04/13 18:21:41;;;;;;;4.50;3.30;;;;;;;21.06;49.98;100585.56;10260698;28;20010;-76
2024/04/13 18:26:43;;;;;;;8.40;4.45;;;;;;;20.94;50.72;100586.00;10217860;28;20100;-76
2024/04/13 18:31:45;;;;;;;5.65;4.18;;;;;;;20.92;50.78;100587.22;10258947;28;20113;-76
2024/04/13 18:36:47;;;;;;;5.68;3.90;;;;;;;20.84;51.13;100585.44;10257354;28;20455;-77
2024/04/13 18:41:49;;;;;;;6.55;4.10;;;;;;;20.63;51.98;100588.91;10254869;28;20029;-77
2024/04/13 18:46:51;;;;;;;7.75;4.20;;;;;;;20.46;52.88;100596.41;10253116;28;20128;-77
2024/04/13 18:51:53;;;;;;;8.23;4.72;;;;;;;20.51;52.64;100591.22;10248514;28;20024;-76
2024/04/13 18:56:55;;;;;;;4.15;3.67;;;;;;;20.50;52.83;100594.97;10252486;28;20021;-76
2024/04/13 19:01:57;;;;;;;5.93;4.53;;;;;;;20.33;53.26;100593.44;10253675;28;20013;-76
2024/04/13 19:06:59;;;;;;;6.43;4.00;;;;;;;20.41;53.46;100590.66;10251814;28;20017;-76
2024/04/13 19:12:01;;;;;;;6.72;4.75;;;;;;;20.28;53.55;100585.75;10279290;28;20037;-75
2024/04/13 19:17:03;;;;;;;7.10;4.70;;;;;;;20.25;53.72;100588.03;10269104;28;20492;-77
2024/04/13 19:22:05;;;;;;;6.18;4.45;;;;;;;20.16;54.33;100591.81;10245864;28;20369;-76
2024/04/13 19:27:07;;;;;;;9.48;4.57;;;;;;;19.99;54.67;100596.56;10253840;28;20013;-76
2024/04/13 19:32:09;;;;;;;5.25;4.68;;;;;;;19.95;55.37;100587.91;10247410;28;20068;-76
2024/04/13 19:37:10;;;;;;;5.82;4.82;;;;;;;19.71;56.12;100586.16;10248276;28;20005;-76
2024/04/13 19:42:12;;;;;;;7.85;4.40;;;;;;;19.65;56.44;100585.00;10248906;28;20025;-76
2024/04/13 19:47:14;;;;;;;5.80;4.38;;;;;;;19.61;56.38;100563.75;10228385;28;20029;-75
2024/04/13 19:52:16;;;;;;;6.57;4.90;;;;;;;19.63;55.96;100565.25;10249345;28;20037;-76
2024/04/13 19:57:18;;;;;;;6.28;5.03;;;;;;;19.66;56.27;100558.59;10249232;28;20005;-76
2024/04/13 20:02:20;;;;;;;7.78;4.35;;;;;;;19.53;56.86;100561.03;10235692;28;20028;-76
2024/04/13 20:07:22;;;;;;;8.55;4.80;;;;;;;19.50;57.15;100561.38;10245503;28;20021;-75
2024/04/13 20:12:24;;;;;;;8.00;4.63;;;;;;;19.11;58.21;100570.41;10245412;28;20009;-76
2024/04/13 20:22:47;;;;;;;6.95;4.57;;;;;;;19.08;59.14;100558.00;10246011;28;20009;-77
2024/04/13 20:27:48;;;;;;;6.28;4.95;;;;;;;19.19;58.38;100562.22;10239733;28;20355;-77
2024/04/13 20:32:50;;;;;;;10.02;5.32;;;;;;;19.02;58.80;100558.72;10232411;29;20022;-76
2024/04/13 20:37:53;;;;;;;8.27;5.03;;;;;;;19.04;58.97;100558.56;10252871;28;20362;-75
2024/04/13 20:42:56;;;;;;;5.30;4.72;;;;;;;18.95;59.43;100560.44;10253265;29;20024;-76
2024/04/13 20:47:58;;;;;;;10.13;5.07;;;;;;;19.06;59.06;100551.03;10250788;28;20014;-76
2024/04/13 20:53:00;;;;;;;7.60;4.90;;;;;;;18.77;59.36;100547.03;10254467;28;20417;-76
2024/04/13 20:58:03;;;;;;;8.27;5.30;;;;;;;19.05;58.32;100546.63;10250774;29;20038;-75
2024/04/13 21:03:05;;;;;;;5.97;5.18;;;;;;;19.00;58.58;100549.88;10252051;29;20017;-77
2024/04/13 21:08:07;;;;;;;8.90;4.70;;;;;;;18.66;59.13;100552.84;10254857;29;20518;-76
2024/04/13 21:13:09;;;;;;;9.38;4.65;;;;;;;18.72;59.13;100536.66;10240838;28;20021;-77
2024/04/13 21:18:11;;;;;;;9.93;4.65;;;;;;;18.61;59.32;100534.31;10254740;29;20352;-77
2024/04/13 21:23:13;;;;;;;8.85;5.90;;;;;;;18.51;59.43;100542.69;10254686;28;20006;-77
2024/04/13 21:28:15;;;;;;;8.98;4.53;;;;;;;18.50;59.69;100549.13;10253436;28;20183;-77
2024/04/13 21:33:17;;;;;;;7.18;4.68;;;;;;;18.45;59.49;100545.22;10252912;29;20027;-77
2024/04/13 21:38:18;;;;;;;6.35;4.70;;;;;;;18.62;59.29;100536.00;10225798;29;20013;-77
2024/04/13 21:43:21;;;;;;;8.35;5.18;;;;;;;18.50;59.57;100535.50;10251706;29;20021;-77
2024/04/13 21:48:23;;;;;;;9.05;5.38;;;;;;;18.58;59.60;100540.94;10253000;28;20013;-77
2024/04/13 21:53:25;;;;;;;7.97;5.22;;;;;;;18.62;58.75;100530.56;10257993;29;20009;-77
2024/04/13 21:58:27;;;;;;;8.90;5.07;;;;;;;18.50;59.30;100523.78;10257737;29;20013;-77
2024/04/13 22:03:29;;;;;;;9.05;5.22;;;;;;;18.48;59.35;100525.81;10257997;29;20402;-77
2024/04/13 22:08:31;;;;;;;5.50;4.78;;;;;;;18.46;59.42;100530.63;10257313;29;20028;-77
2024/04/13 22:13:51;;;;;;;9.30;5.43;;;;;;;18.28;60.38;100528.91;10258282;29;20453;-76
2024/04/13 22:18:53;;;;;;;9.23;5.25;;;;;;;18.41;59.89;100517.53;10254130;29;20426;-77
2024/04/13 22:23:56;;;;;;;6.72;4.75;;;;;;;18.31;60.76;100514.97;10257460;28;20049;-76
2024/04/13 22:28:59;;;;;;;5.20;4.63;;;;;;;18.31;60.44;100517.69;10257622;29;20013;-76
2024/04/13 22:34:00;;;;;;;6.63;4.97;;;;;;;18.48;59.77;100515.78;10249791;28;20009;-76
2024/04/13 22:39:03;;;;;;;10.63;5.10;;;;;;;18.53;60.04;100516.13;10231268;29;20103;-76
2024/04/13 22:44:04;;;;;;;10.70;4.85;;;;;;;18.28;61.19;100525.34;10230860;29;20024;-76
2024/04/13 22:49:06;;;;;;;7.25;5.50;;;;;;;18.30;61.51;100517.88;10257100;29;20875;-78
2024/04/13 22:54:08;;;;;;;5.78;4.90;;;;;;;18.09;62.56;100518.41;10269872;29;20028;-77
2024/04/13 22:59:10;;;;;;;10.13;5.50;;;;;;;18.18;62.64;100528.22;10248455;28;20371;-78
2024/04/13 23:04:12;;;;;;;9.45;5.25;;;;;;;17.94;63.93;100512.78;10257257;29;20017;-77
2024/04/13 23:09:14;;;;;;;7.75;5.22;;;;;;;17.81;65.19;100521.41;10258175;29;20017;-77
2024/04/13 23:14:16;;;;;;;9.02;5.00;;;;;;;17.61;66.45;100517.31;10253508;29;20352;-77
2024/04/13 23:19:17;;;;;;;7.68;4.70;;;;;;;17.68;65.77;100529.19;10254947;29;20024;-77
2024/04/13 23:24:19;;;;;;;7.85;4.65;;;;;;;17.77;65.95;100520.06;10254358;28;20024;-76
2024/04/13 23:29:21;;;;;;;7.03;5.30;;;;;;;17.64;67.21;100516.97;10227807;29;20017;-76
2024/04/13 23:34:23;;;;;;;7.45;6.03;;;;;;;17.74;67.12;100511.38;10253692;29;20024;-77